Time;durP1;ratioP1;P1;durP2;ratioP2;P2;SDS_P1;SDS_P2;PMS_P1;PMS_P2;Temp;Humidity;BMP_temperature;BMP_pressure;BME280_temperature;BME280_humidity;BME280_pressure;Samples;Min_cycle;Max_cycle;Signal;HPM_P1;HPM_P2
2021/01/04 00:01:29;;;;;;;39.30;26.50;;;;;;;1.33;100.00;98242.66;4980728;28;103022;-77
2021/01/04 00:04:10;;;;;;;37.10;27.70;;;;;;;1.28;100.00;98242.03;4990831;28;102635;-76
2021/01/04 00:07:04;;;;;;;37.37;23.33;;;;;;;1.46;100.00;98243.84;4980488;28;106660;-77
2021/01/04 00:09:47;;;;;;;38.40;27.30;;;;;;;1.46;100.00;98243.84;4980348;28;104803;-78
2021/01/04 00:12:21;;;;;;;37.03;26.07;;;;;;;1.43;100.00;98243.13;4978679;28;103218;-77
2021/01/04 00:15:02;;;;;;;35.20;25.60;;;;;;;1.40;100.00;98244.13;4977197;28;103063;-77
2021/01/04 00:18:00;;;;;;;36.50;26.17;;;;;;;1.38;100.00;98234.66;4976191;28;104244;-76
2021/01/04 00:20:34;;;;;;;35.73;25.30;;;;;;;1.46;100.00;98243.00;4985067;28;102979;-77
2021/01/04 00:23:12;;;;;;;33.07;24.73;;;;;;;1.48;100.00;98236.81;4986413;28;102704;-77
2021/01/04 00:25:50;;;;;;;37.33;27.53;;;;;;;1.23;100.00;98236.19;4961307;28;102666;-76
2021/01/04 00:28:21;;;;;;;34.63;26.57;;;;;;;1.20;100.00;98241.50;4973631;28;102942;-77
2021/01/04 00:30:53;;;;;;;34.20;26.10;;;;;;;1.14;100.00;98236.56;4974150;28;104965;-76
2021/01/04 00:33:25;;;;;;;29.00;21.70;;;;;;;1.46;100.00;98238.63;4981914;28;102967;-76
2021/01/04 00:35:58;;;;;;;36.27;26.13;;;;;;;1.39;100.00;98229.41;4976001;28;103246;-76
2021/01/04 00:39:02;;;;;;;33.47;25.63;;;;;;;1.52;100.00;98232.31;4986208;28;106001;-77
2021/01/04 00:41:43;;;;;;;28.03;20.77;;;;;;;1.62;100.00;98239.69;4979726;28;103873;-76
2021/01/04 00:44:17;;;;;;;33.73;24.37;;;;;;;1.65;100.00;98247.34;4970262;28;103001;-77
2021/01/04 00:46:51;;;;;;;33.90;25.30;;;;;;;1.66;100.00;98240.34;4971200;28;102570;-76
2021/01/04 00:49:27;;;;;;;31.90;23.43;;;;;;;1.73;100.00;98241.78;4985509;28;106710;-76
2021/01/04 00:51:58;;;;;;;35.67;26.63;;;;;;;1.43;100.00;98243.13;4976646;28;103649;-76
2021/01/04 00:54:37;;;;;;;38.53;27.63;;;;;;;1.34;100.00;98243.53;4979314;28;102827;-76
2021/01/04 00:57:30;;;;;;;39.17;27.83;;;;;;;1.32;100.00;98248.78;4981660;28;103109;-76
2021/01/04 01:00:09;;;;;;;35.10;25.83;;;;;;;1.22;100.00;98244.88;4973035;28;105844;-76
2021/01/04 01:02:57;;;;;;;34.53;26.43;;;;;;;1.41;100.00;98242.34;4985611;28;103784;-76
2021/01/04 01:05:33;;;;;;;37.03;26.73;;;;;;;1.24;100.00;98250.88;4974939;28;103094;-77
2021/01/04 01:08:07;;;;;;;35.90;26.60;;;;;;;1.01;100.00;98251.81;4980630;28;103082;-76
2021/01/04 01:10:41;;;;;;;35.10;25.07;;;;;;;1.10;100.00;98250.59;4978720;28;103409;-77
2021/01/04 01:13:50;;;;;;;36.70;26.50;;;;;;;1.06;100.00;98249.03;4979441;28;104792;-76
2021/01/04 01:16:24;;;;;;;36.63;27.50;;;;;;;1.06;100.00;98252.50;4919759;28;103296;-76
2021/01/04 01:19:05;;;;;;;39.43;27.10;;;;;;;1.03;100.00;98254.38;4923824;28;103117;-76
2021/01/04 01:21:33;;;;;;;36.77;28.17;;;;;;;1.20;100.00;98246.72;4950973;28;104978;-76
2021/01/04 01:24:02;;;;;;;37.40;27.10;;;;;;;1.21;100.00;98248.38;4979680;28;110217;-76
2021/01/04 01:27:11;;;;;;;35.83;27.47;;;;;;;1.13;100.00;98245.25;4979933;28;102599;-76
2021/01/04 01:30:15;;;;;;;41.17;27.80;;;;;;;1.20;100.00;98251.06;4944228;28;103074;-76
2021/01/04 01:33:00;;;;;;;38.10;27.90;;;;;;;1.24;100.00;98257.81;4942923;28;103072;-76
2021/01/04 01:35:45;;;;;;;38.20;28.07;;;;;;;1.24;100.00;98258.66;4965951;28;105161;-76
2021/01/04 01:38:51;;;;;;;36.20;25.63;;;;;;;1.31;100.00;98260.13;4968819;28;102839;-76
2021/01/04 01:41:50;;;;;;;39.00;27.83;;;;;;;1.22;100.00;98260.50;4981238;28;103136;-76
2021/01/04 01:44:21;;;;;;;37.10;27.20;;;;;;;1.13;100.00;98251.31;4969959;28;103168;-76
2021/01/04 01:46:56;;;;;;;39.07;27.03;;;;;;;1.14;100.00;98262.56;4981880;28;104864;-76
2021/01/04 01:49:51;;;;;;;37.53;27.23;;;;;;;1.26;100.00;98267.28;4987376;28;102969;-76
2021/01/04 01:52:33;;;;;;;38.97;28.40;;;;;;;1.23;100.00;98262.19;4975410;28;102917;-76
2021/01/04 01:55:18;;;;;;;36.47;26.33;;;;;;;1.16;100.00;98263.34;4979773;28;103911;-76
2021/01/04 01:58:13;;;;;;;42.77;29.03;;;;;;;1.08;100.00;98262.81;4982224;28;103668;-77
2021/01/04 02:00:45;;;;;;;36.93;25.60;;;;;;;1.24;100.00;98258.66;4976012;28;104860;-76
2021/01/04 02:03:20;;;;;;;36.53;28.03;;;;;;;1.25;100.00;98249.97;4970191;28;102753;-78
2021/01/04 02:06:07;;;;;;;42.80;29.03;;;;;;;1.03;100.00;98256.97;4984670;28;104874;-77
2021/01/04 02:08:39;;;;;;;37.50;27.27;;;;;;;1.09;100.00;98264.53;4975009;28;103682;-78
2021/01/04 02:11:16;;;;;;;41.63;30.33;;;;;;;1.06;100.00;98259.44;4979586;28;103915;-76
2021/01/04 02:13:54;;;;;;;40.70;28.73;;;;;;;0.95;100.00;98266.84;4986265;28;103248;-76
2021/01/04 02:16:28;;;;;;;41.70;29.20;;;;;;;1.02;100.00;98263.06;4992208;28;105098;-77
2021/01/04 02:19:07;;;;;;;48.23;28.87;;;;;;;1.06;100.00;98254.25;4984606;28;103793;-77
2021/01/04 02:22:13;;;;;;;40.13;29.00;;;;;;;1.08;100.00;98260.22;4978111;28;103011;-77
2021/01/04 02:24:41;;;;;;;39.53;27.37;;;;;;;1.09;100.00;98249.78;4977004;28;104672;-76
2021/01/04 02:27:12;;;;;;;40.90;26.10;;;;;;;1.08;100.00;98252.41;4976650;28;104401;-76
2021/01/04 02:29:39;;;;;;;37.40;26.10;;;;;;;1.18;100.00;98258.91;4975750;28;103814;-76
2021/01/04 02:32:09;;;;;;;42.80;28.87;;;;;;;1.17;100.00;98258.09;4986872;28;103039;-76
2021/01/04 02:34:39;;;;;;;37.97;26.93;;;;;;;1.22;100.00;98255.28;4977345;28;102978;-76
2021/01/04 02:37:07;;;;;;;41.40;28.10;;;;;;;1.09;100.00;98254.13;4976255;28;105567;-75
2021/01/04 02:39:40;;;;;;;42.83;28.33;;;;;;;1.10;100.00;98255.78;4973254;28;105566;-76
2021/01/04 02:42:13;;;;;;;38.43;28.23;;;;;;;1.10;100.00;98253.19;4978641;28;103268;-76
2021/01/04 02:44:41;;;;;;;45.47;30.23;;;;;;;1.00;100.00;98249.28;4980963;28;103028;-76
2021/01/04 02:47:27;;;;;;;39.30;28.07;;;;;;;1.04;100.00;98250.84;4981017;28;104843;-76
2021/01/04 02:50:06;;;;;;;38.90;28.47;;;;;;;0.98;100.00;98245.91;4975056;28;104228;-76
2021/01/04 02:52:50;;;;;;;40.37;27.87;;;;;;;1.06;100.00;98249.03;4981023;28;103021;-76
2021/01/04 02:55:26;;;;;;;41.73;28.80;;;;;;;1.04;100.00;98253.44;4979755;28;103181;-76
2021/01/04 02:58:03;;;;;;;37.63;28.03;;;;;;;1.08;100.00;98252.41;4979337;28;105271;-76
2021/01/04 03:00:32;;;;;;;39.83;27.97;;;;;;;1.02;100.00;98252.66;4985062;28;104538;-76
2021/01/04 03:03:05;;;;;;;35.90;25.50;;;;;;;1.21;100.00;98263.19;4972205;28;102952;-77
2021/01/04 03:05:32;;;;;;;37.07;27.80;;;;;;;1.22;100.00;98267.44;4976244;28;102946;-76
2021/01/04 03:08:01;;;;;;;39.20;29.37;;;;;;;1.13;100.00;98271.28;4976903;28;103851;-77
2021/01/04 03:10:32;;;;;;;41.20;28.80;;;;;;;1.12;100.00;98265.22;4978264;28;103753;-76
2021/01/04 03:13:13;;;;;;;40.37;28.70;;;;;;;1.25;100.00;98265.56;4977177;28;103028;-77
2021/01/04 03:15:58;;;;;;;40.53;28.73;;;;;;;1.07;100.00;98267.19;4988038;28;103336;-76
2021/01/04 03:18:31;;;;;;;40.13;29.07;;;;;;;1.10;100.00;98263.59;4989201;28;103838;-76
2021/01/04 03:20:58;;;;;;;42.10;29.17;;;;;;;1.00;100.00;98272.69;4977908;28;103242;-76
2021/01/04 03:23:25;;;;;;;40.83;29.63;;;;;;;0.87;100.00;98267.13;4982145;28;102914;-76
2021/01/04 03:25:55;;;;;;;37.70;27.70;;;;;;;1.06;100.00;98262.06;4972669;28;103181;-76
2021/01/04 03:28:28;;;;;;;40.73;29.07;;;;;;;1.09;100.00;98267.97;4976890;28;105145;-76
2021/01/04 03:30:56;;;;;;;40.20;29.03;;;;;;;1.07;100.00;98261.97;4978531;28;106336;-76
2021/01/04 03:33:24;;;;;;;41.17;29.13;;;;;;;0.98;100.00;98259.75;4972735;28;102991;-76
2021/01/04 03:35:52;;;;;;;38.73;27.83;;;;;;;1.01;100.00;98261.41;4982085;28;103576;-77
2021/01/04 03:38:20;;;;;;;37.70;27.90;;;;;;;1.00;100.00;98251.88;4979162;28;106019;-77
2021/01/04 03:40:47;;;;;;;37.47;27.77;;;;;;;0.89;100.00;98256.69;4983028;28;103741;-77
2021/01/04 03:43:14;;;;;;;39.63;29.00;;;;;;;0.89;100.00;98261.88;4971733;28;102627;-77
2021/01/04 03:45:42;;;;;;;43.27;29.07;;;;;;;0.83;100.00;98259.53;4984366;28;102683;-79
2021/01/04 03:48:10;;;;;;;40.17;28.33;;;;;;;0.77;100.00;98262.38;4988070;28;104750;-82
2021/01/04 03:50:37;;;;;;;44.37;29.80;;;;;;;0.79;100.00;98265.75;4988697;28;103760;-78
2021/01/04 03:53:05;;;;;;;43.53;28.97;;;;;;;0.69;100.00;98262.69;4977834;28;103085;-78
2021/01/04 03:55:39;;;;;;;45.17;29.33;;;;;;;0.80;100.00;98267.44;4978789;28;103100;-77
2021/01/04 03:58:06;;;;;;;42.13;28.60;;;;;;;0.81;100.00;98262.22;4975139;28;106381;-77
2021/01/04 04:00:33;;;;;;;38.43;26.90;;;;;;;0.92;100.00;98266.97;4980576;28;103418;-76
2021/01/04 04:03:01;;;;;;;43.50;29.43;;;;;;;0.91;100.00;98270.47;4983727;28;103097;-76
2021/01/04 04:05:30;;;;;;;45.93;30.43;;;;;;;0.95;100.00;98261.66;4981010;28;102805;-77
2021/01/04 04:07:57;;;;;;;41.13;29.83;;;;;;;0.81;100.00;98269.16;4978191;28;103923;-76
2021/01/04 04:10:25;;;;;;;45.00;29.50;;;;;;;0.89;100.00;98265.34;4982001;28;104155;-79
2021/01/04 04:12:52;;;;;;;43.93;28.37;;;;;;;0.99;100.00;98260.59;4981733;28;102602;-76
2021/01/04 04:15:20;;;;;;;41.03;29.33;;;;;;;1.03;100.00;98273.44;4981296;28;103411;-76
2021/01/04 04:17:48;;;;;;;40.43;29.70;;;;;;;1.03;100.00;98264.78;4983291;28;103996;-76
2021/01/04 04:20:18;;;;;;;41.60;28.70;;;;;;;0.96;100.00;98271.97;4987520;28;103833;-77
2021/01/04 04:22:48;;;;;;;41.20;27.17;;;;;;;1.03;100.00;98273.44;4988579;28;103972;-80
2021/01/04 04:25:17;;;;;;;39.50;28.57;;;;;;;0.94;100.00;98272.94;4979426;28;102488;-77
2021/01/04 04:27:44;;;;;;;41.23;29.23;;;;;;;0.95;100.00;98261.66;4980463;28;103992;-76
2021/01/04 04:30:14;;;;;;;38.27;27.40;;;;;;;1.06;100.00;98268.09;4986401;28;104772;-75
2021/01/04 04:32:41;;;;;;;44.10;29.80;;;;;;;1.13;100.00;98266.06;4973508;28;102676;-77
2021/01/04 04:35:13;;;;;;;41.20;29.30;;;;;;;1.04;100.00;98274.25;4981270;28;102921;-76
2021/01/04 04:37:41;;;;;;;39.40;28.93;;;;;;;1.11;100.00;98268.75;4980548;28;103888;-76
2021/01/04 04:40:14;;;;;;;43.07;29.37;;;;;;;1.08;100.00;98268.03;4979098;28;103753;-76
2021/01/04 04:42:41;;;;;;;31.43;21.30;;;;;;;1.26;100.00;98259.47;4980453;28;102940;-76
2021/01/04 04:45:15;;;;;;;40.00;26.27;;;;;;;1.32;100.00;98269.59;4974819;28;102723;-76
2021/01/04 04:48:12;;;;;;;27.03;19.80;;;;;;;1.39;100.00;98263.25;4983548;28;104409;-76
2021/01/04 04:51:01;;;;;;;39.40;25.73;;;;;;;1.41;100.00;98271.81;4970663;28;104223;-76
2021/01/04 04:54:08;;;;;;;36.03;26.10;;;;;;;1.38;100.00;98274.56;4990104;28;102567;-75
2021/01/04 04:56:55;;;;;;;35.17;24.23;;;;;;;1.37;100.00;98275.47;4982748;28;102865;-76
2021/01/04 04:59:40;;;;;;;39.07;26.50;;;;;;;1.23;100.00;98272.63;4972511;28;103862;-76
2021/01/04 05:02:12;;;;;;;35.03;24.00;;;;;;;1.31;100.00;98275.72;4974909;28;103938;-76
2021/01/04 05:05:04;;;;;;;32.70;22.93;;;;;;;1.34;100.00;98273.00;4978455;28;102633;-77
2021/01/04 05:07:44;;;;;;;33.57;23.27;;;;;;;1.41;100.00;98277.03;4971443;28;103260;-77
2021/01/04 05:10:18;;;;;;;40.97;26.50;;;;;;;1.42;100.00;98270.06;4986043;28;103996;-76
2021/01/04 05:12:59;;;;;;;30.43;20.50;;;;;;;1.46;100.00;98280.28;4979937;28;103762;-76
2021/01/04 05:15:36;;;;;;;32.47;22.00;;;;;;;1.54;100.00;98279.97;4976255;28;103092;-77
2021/01/04 05:18:51;;;;;;;34.17;21.63;;;;;;;1.57;100.00;98283.25;4972338;28;102952;-76
2021/01/04 05:21:49;;;;;;;28.13;18.53;;;;;;;1.57;100.00;98283.25;4934274;28;106331;-76
2021/01/04 05:24:39;;;;;;;38.80;26.33;;;;;;;1.47;100.00;98281.13;4981998;28;103796;-76
2021/01/04 05:27:47;;;;;;;31.00;21.67;;;;;;;1.35;100.00;98276.47;4982571;28;102660;-76
2021/01/04 05:30:22;;;;;;;36.60;26.60;;;;;;;1.24;100.00;98278.63;4985597;28;103103;-77
2021/01/04 05:33:26;;;;;;;39.63;27.70;;;;;;;1.11;100.00;98284.38;4980498;28;103670;-76
2021/01/04 05:36:05;;;;;;;38.87;27.23;;;;;;;1.15;100.00;98288.50;4975778;28;103071;-76
2021/01/04 05:38:42;;;;;;;42.70;25.90;;;;;;;1.05;100.00;98286.38;4980130;28;103093;-77
2021/01/04 05:41:32;;;;;;;40.77;28.50;;;;;;;1.10;100.00;98287.88;4980019;28;102831;-76
2021/01/04 05:44:14;;;;;;;32.73;22.47;;;;;;;1.25;100.00;98280.34;4974067;28;105826;-76
2021/01/04 05:46:47;;;;;;;36.50;24.37;;;;;;;1.27;100.00;98278.50;4976793;28;103475;-76
2021/01/04 05:49:26;;;;;;;41.23;28.07;;;;;;;1.12;100.00;98285.22;4981215;28;103072;-76
2021/01/04 05:51:53;;;;;;;39.30;26.37;;;;;;;0.96;100.00;98277.19;4984577;28;102708;-76
2021/01/04 05:54:26;;;;;;;39.87;28.87;;;;;;;0.96;100.00;98284.13;4981680;28;103791;-76
2021/01/04 05:57:03;;;;;;;42.50;29.10;;;;;;;1.03;100.00;98280.38;4975877;28;103237;-76
2021/01/04 05:59:31;;;;;;;42.33;28.60;;;;;;;1.04;100.00;98284.66;4982915;28;102724;-76
2021/01/04 06:02:02;;;;;;;42.17;28.37;;;;;;;1.01;100.00;98287.41;4980893;28;104181;-76
2021/01/04 06:04:30;;;;;;;43.17;28.00;;;;;;;1.03;100.00;98285.59;4975703;28;103872;-78
2021/01/04 06:07:05;;;;;;;44.83;30.13;;;;;;;0.84;100.00;98284.63;4976586;28;103704;-76
2021/01/04 06:09:33;;;;;;;39.80;27.70;;;;;;;0.86;100.00;98282.81;4984446;28;103114;-78
2021/01/04 06:12:03;;;;;;;39.93;26.57;;;;;;;0.94;100.00;98283.34;4977692;28;102764;-76
2021/01/04 06:14:34;;;;;;;35.87;23.43;;;;;;;1.01;100.00;98282.22;4970961;28;106063;-76
2021/01/04 06:17:04;;;;;;;41.00;26.73;;;;;;;0.91;100.00;98275.66;4972600;28;103409;-77
2021/01/04 06:19:34;;;;;;;38.67;26.27;;;;;;;0.86;100.00;98277.63;4977914;28;102650;-76
2021/01/04 06:22:11;;;;;;;38.70;25.30;;;;;;;0.92;100.00;98277.38;4988944;28;103639;-76
2021/01/04 06:24:40;;;;;;;40.23;25.53;;;;;;;0.90;100.00;98284.41;4977272;28;103481;-76
2021/01/04 06:27:11;;;;;;;41.37;25.90;;;;;;;0.96;100.00;98284.13;4975663;28;105606;-76
2021/01/04 06:29:41;;;;;;;40.73;27.33;;;;;;;0.93;100.00;98284.25;4978033;28;102969;-77
2021/01/04 06:32:21;;;;;;;40.70;27.47;;;;;;;1.02;100.00;98286.47;4971631;28;102806;-76
2021/01/04 06:34:54;;;;;;;40.80;26.73;;;;;;;1.01;100.00;98287.41;4971636;28;104629;-76
2021/01/04 06:37:24;;;;;;;37.43;23.90;;;;;;;1.05;100.00;98288.97;4976937;28;108583;-77
2021/01/04 06:40:00;;;;;;;35.70;24.60;;;;;;;1.06;100.00;98291.53;4981460;28;103832;-77
2021/01/04 06:42:34;;;;;;;41.87;27.30;;;;;;;0.95;100.00;98292.84;4982876;28;102996;-76
2021/01/04 06:45:15;;;;;;;41.13;26.73;;;;;;;0.68;100.00;98288.72;4971471;28;104039;-76
2021/01/04 06:47:48;;;;;;;41.60;26.90;;;;;;;0.84;100.00;98285.47;4983531;28;103953;-75
2021/01/04 06:50:21;;;;;;;43.67;27.50;;;;;;;0.88;100.00;98283.59;4973795;28;103076;-75
2021/01/04 06:53:18;;;;;;;47.20;29.00;;;;;;;0.91;100.00;98278.28;4967736;28;102685;-76
2021/01/04 06:56:22;;;;;;;40.63;26.30;;;;;;;0.99;100.00;98290.06;4978914;28;103310;-77
2021/01/04 06:59:14;;;;;;;41.83;25.93;;;;;;;0.77;100.00;98290.97;4971009;28;104336;-76
2021/01/04 07:02:13;;;;;;;31.23;19.83;;;;;;;1.01;100.00;98288.22;4971550;28;103129;-73
2021/01/04 07:05:25;;;;;;;28.67;17.27;;;;;;;1.23;100.00;98287.38;4973729;28;103143;-74
2021/01/04 07:08:09;;;;;;;36.47;23.43;;;;;;;0.95;100.00;98283.31;4960848;28;103920;-75
2021/01/04 07:10:49;;;;;;;43.13;26.73;;;;;;;0.87;100.00;98292.31;4974791;28;103969;-75
2021/01/04 07:13:34;;;;;;;41.60;26.73;;;;;;;0.89;100.00;98287.91;4971531;28;103030;-76
2021/01/04 07:16:45;;;;;;;41.10;27.47;;;;;;;1.03;100.00;98288.19;4974956;28;102651;-75
2021/01/04 07:19:28;;;;;;;26.97;17.33;;;;;;;1.28;100.00;98288.88;4965830;28;105617;-75
2021/01/04 07:22:01;;;;;;;36.30;22.37;;;;;;;1.27;100.00;98292.38;4977342;28;103283;-78
2021/01/04 07:24:41;;;;;;;32.67;20.97;;;;;;;1.37;100.00;98291.09;4981941;28;102695;-74
2021/01/04 07:27:39;;;;;;;32.07;19.87;;;;;;;1.26;100.00;98288.09;4977059;28;102838;-78
2021/01/04 07:30:18;;;;;;;34.40;22.70;;;;;;;1.25;100.00;98289.00;4973739;28;103975;-75
2021/01/04 07:32:53;;;;;;;29.07;18.50;;;;;;;1.23;100.00;98293.44;4975006;28;103400;-74
2021/01/04 07:35:23;;;;;;;35.70;23.90;;;;;;;1.32;100.00;98295.63;4985159;28;102769;-74
2021/01/04 07:38:01;;;;;;;31.53;20.40;;;;;;;1.29;100.00;98298.38;4977665;28;103358;-74
2021/01/04 07:40:43;;;;;;;37.93;24.17;;;;;;;1.28;100.00;98301.03;4973430;28;103146;-75
2021/01/04 07:43:40;;;;;;;32.60;20.27;;;;;;;1.25;100.00;98301.16;4978840;28;103754;-74
2021/01/04 07:46:44;;;;;;;36.50;23.77;;;;;;;1.03;100.00;98301.19;4983056;28;103008;-75
2021/01/04 07:49:50;;;;;;;36.33;22.63;;;;;;;1.13;100.00;98307.72;4980867;28;103053;-79
2021/01/04 07:52:52;;;;;;;25.37;15.73;;;;;;;1.41;100.00;98303.06;4957309;28;103970;-79
2021/01/04 07:55:55;;;;;;;32.27;21.77;;;;;;;1.55;100.00;98305.94;4981823;28;103664;-79
2021/01/04 07:59:01;;;;;;;25.57;16.27;;;;;;;1.67;100.00;98300.22;4973399;28;103077;-78
2021/01/04 08:02:17;;;;;;;37.30;24.70;;;;;;;1.43;100.00;98303.84;4977372;28;103862;-80
2021/01/04 08:05:21;;;;;;;36.33;23.33;;;;;;;1.41;100.00;98307.41;4929221;28;103414;-80
2021/01/04 08:08:33;;;;;;;25.70;16.83;;;;;;;1.57;100.00;98314.50;4964530;28;105304;-83
2021/01/04 08:11:31;;;;;;;32.40;21.43;;;;;;;1.58;100.00;98311.00;4981651;28;102470;-82
2021/01/04 08:14:29;;;;;;;30.60;19.73;;;;;;;1.54;100.00;98308.63;4980944;28;102842;-84
2021/01/04 08:17:04;;;;;;;36.60;23.77;;;;;;;1.49;100.00;98311.38;4972244;28;107154;-82
2021/01/04 08:19:36;;;;;;;36.93;24.30;;;;;;;1.30;100.00;98320.88;4970121;28;104410;-82
2021/01/04 08:22:12;;;;;;;40.47;25.83;;;;;;;1.26;100.00;98316.72;4983012;28;102887;-82
2021/01/04 08:24:43;;;;;;;38.00;25.07;;;;;;;1.12;100.00;98317.25;5149531;23;104177;-79
2021/01/04 08:27:32;;;;;;;39.20;25.87;;;;;;;0.97;100.00;98299.69;4994236;28;103402;-78
2021/01/04 08:30:11;;;;;;;39.33;25.47;;;;;;;1.18;100.00;98301.41;4994154;28;103291;-80
2021/01/04 08:32:50;;;;;;;37.80;24.07;;;;;;;1.21;100.00;98297.81;4989716;28;102668;-80
2021/01/04 08:35:33;;;;;;;28.93;18.67;;;;;;;1.46;100.00;98310.69;4991508;28;103164;-80
2021/01/04 08:38:34;;;;;;;32.57;22.53;;;;;;;1.55;100.00;98316.34;4990616;28;103875;-80
2021/01/04 08:41:06;;;;;;;37.40;24.57;;;;;;;1.46;100.00;98318.50;4982259;28;102639;-77
2021/01/04 08:43:37;;;;;;;39.63;25.83;;;;;;;1.41;100.00;98317.81;4968111;28;104056;-78
2021/01/04 08:46:35;;;;;;;35.27;24.77;;;;;;;1.29;100.00;98324.41;4978289;28;103411;-79
2021/01/04 08:49:18;;;;;;;39.10;24.83;;;;;;;1.12;100.00;98316.44;4905609;28;104063;-77
2021/01/04 08:51:47;;;;;;;30.83;20.90;;;;;;;1.32;100.00;98323.44;4961171;28;103877;-78
2021/01/04 08:54:30;;;;;;;34.47;23.90;;;;;;;1.16;100.00;98333.59;4969198;28;104342;-77
2021/01/04 08:57:14;;;;;;;34.47;23.47;;;;;;;1.12;100.00;98332.06;4951172;28;104364;-75
2021/01/04 08:59:54;;;;;;;32.37;24.33;;;;;;;1.31;100.00;98330.38;4955972;28;104186;-75
2021/01/04 09:02:33;;;;;;;36.57;24.90;;;;;;;1.17;100.00;98338.75;4961388;28;104400;-75
2021/01/04 09:05:04;;;;;;;36.37;22.87;;;;;;;1.22;100.00;98333.38;4956701;28;103033;-75
2021/01/04 09:07:32;;;;;;;36.10;24.73;;;;;;;1.15;100.00;98331.94;4966127;28;104262;-77
2021/01/04 09:10:02;;;;;;;37.57;24.53;;;;;;;1.09;100.00;98334.78;4956635;28;105848;-76
2021/01/04 09:12:36;;;;;;;41.07;26.27;;;;;;;1.10;100.00;98331.25;4967976;28;103726;-77
2021/01/04 09:15:07;;;;;;;37.00;24.87;;;;;;;1.13;100.00;98334.56;4962476;28;103619;-75
2021/01/04 09:17:45;;;;;;;34.07;23.23;;;;;;;1.26;100.00;98332.34;4960339;28;103815;-75
2021/01/04 09:20:32;;;;;;;39.40;25.70;;;;;;;1.27;100.00;98326.22;4962521;28;104857;-76
2021/01/04 09:23:09;;;;;;;34.23;24.33;;;;;;;1.02;100.00;98336.75;4959437;28;104967;-76
2021/01/04 09:25:47;;;;;;;34.33;24.70;;;;;;;1.17;100.00;98335.31;4967707;28;102936;-75
2021/01/04 09:28:17;;;;;;;37.27;24.50;;;;;;;1.14;100.00;98336.28;4944075;28;104348;-74
2021/01/04 09:30:45;;;;;;;35.00;24.37;;;;;;;1.28;100.00;98333.13;4928747;28;104277;-76
2021/01/04 09:33:14;;;;;;;36.30;23.90;;;;;;;0.95;100.00;98339.69;4929256;28;104124;-77
2021/01/04 09:35:43;;;;;;;34.70;24.87;;;;;;;1.21;100.00;98336.03;4932517;28;104513;-75
2021/01/04 09:38:14;;;;;;;34.23;22.20;;;;;;;1.30;100.00;98333.88;4938481;28;103614;-73
2021/01/04 09:40:49;;;;;;;32.90;23.13;;;;;;;0.93;100.00;98336.28;4941867;28;103842;-77
2021/01/04 09:43:21;;;;;;;34.57;24.70;;;;;;;1.09;100.00;98329.56;4948179;28;104869;-78
2021/01/04 09:45:48;;;;;;;36.97;25.37;;;;;;;1.14;100.00;98330.22;4947040;28;104503;-75
2021/01/04 09:48:26;;;;;;;36.37;23.80;;;;;;;1.13;100.00;98323.31;4936204;28;104613;-78
2021/01/04 09:50:59;;;;;;;34.80;23.67;;;;;;;1.31;100.00;98312.16;4938559;28;104341;-75
2021/01/04 09:53:30;;;;;;;34.97;24.33;;;;;;;1.28;100.00;98317.50;4934951;28;105272;-74
2021/01/04 09:55:59;;;;;;;34.87;24.23;;;;;;;1.17;100.00;98315.34;4938550;28;103300;-74
2021/01/04 09:58:27;;;;;;;36.77;24.20;;;;;;;1.29;100.00;98314.00;4937867;28;102957;-74
2021/01/04 10:01:08;;;;;;;37.10;23.53;;;;;;;1.26;100.00;98321.06;4937722;28;104491;-74
2021/01/04 10:03:35;;;;;;;36.83;24.60;;;;;;;1.15;100.00;98316.31;4938121;28;104811;-74
2021/01/04 10:06:06;;;;;;;36.57;24.90;;;;;;;1.35;100.00;98308.50;4935150;28;103098;-76
2021/01/04 10:08:34;;;;;;;31.50;20.97;;;;;;;1.45;100.00;98304.63;4936311;28;103172;-75
2021/01/04 10:11:04;;;;;;;35.00;24.03;;;;;;;1.51;100.00;98299.19;4937357;28;104803;-75
2021/01/04 10:13:34;;;;;;;33.67;24.20;;;;;;;1.51;100.00;98299.19;4937769;28;104970;-75
2021/01/04 10:16:06;;;;;;;36.17;25.80;;;;;;;1.52;100.00;98295.63;4945545;28;103037;-75
2021/01/04 10:18:41;;;;;;;28.10;18.27;;;;;;;1.84;100.00;98296.03;4944364;28;103018;-74
2021/01/04 10:21:17;;;;;;;35.13;24.13;;;;;;;1.77;100.00;98293.69;4946257;28;103905;-75
2021/01/04 10:23:50;;;;;;;33.03;23.97;;;;;;;1.91;100.00;98284.44;4933497;28;105166;-74
2021/01/04 10:26:38;;;;;;;33.47;24.20;;;;;;;1.56;100.00;98293.75;4944890;28;104509;-74
2021/01/04 10:29:05;;;;;;;31.97;23.30;;;;;;;1.87;100.00;98301.09;4936036;28;103423;-75
2021/01/04 10:31:35;;;;;;;28.13;20.43;;;;;;;1.93;100.00;98301.69;4937595;28;104008;-75
2021/01/04 10:34:05;;;;;;;36.03;24.60;;;;;;;1.98;100.00;98298.88;4936964;28;103674;-75
2021/01/04 10:36:34;;;;;;;26.93;20.10;;;;;;;2.04;100.00;98298.59;4938405;28;103467;-75
2021/01/04 10:39:05;;;;;;;32.67;23.50;;;;;;;1.47;100.00;98294.16;4937788;28;105409;-75
2021/01/04 10:41:35;;;;;;;32.03;23.70;;;;;;;1.63;100.00;98309.03;4938770;28;111057;-75
2021/01/04 10:44:05;;;;;;;31.87;24.70;;;;;;;1.57;100.00;98303.28;4938430;28;105063;-75
2021/01/04 10:46:38;;;;;;;32.07;23.90;;;;;;;1.51;100.00;98306.13;4935492;28;102747;-76
2021/01/04 10:49:08;;;;;;;34.17;23.73;;;;;;;1.57;100.00;98298.06;4939252;28;105493;-74
2021/01/04 10:51:48;;;;;;;31.63;22.60;;;;;;;1.51;100.00;98295.72;4939610;28;105642;-74
2021/01/04 10:54:18;;;;;;;29.80;21.50;;;;;;;1.77;100.00;98301.50;4935124;28;104858;-74
2021/01/04 10:57:01;;;;;;;27.47;19.90;;;;;;;2.06;100.00;98300.22;4936969;28;103335;-74
2021/01/04 10:59:34;;;;;;;32.47;23.27;;;;;;;1.91;99.95;98287.03;4936423;28;104487;-74
2021/01/04 11:02:02;;;;;;;32.80;23.77;;;;;;;1.79;100.00;98295.38;4935939;28;105390;-73
2021/01/04 11:04:29;;;;;;;32.57;23.53;;;;;;;1.50;100.00;98294.88;4934904;28;102991;-74
2021/01/04 11:07:18;;;;;;;32.63;23.40;;;;;;;1.57;100.00;98296.28;4936462;28;103775;-74
2021/01/04 11:09:46;;;;;;;30.90;21.93;;;;;;;1.64;100.00;98295.13;4949460;28;104633;-75
2021/01/04 11:12:16;;;;;;;34.23;23.40;;;;;;;1.59;100.00;98289.28;4938797;28;104422;-74
2021/01/04 11:14:58;;;;;;;27.70;20.93;;;;;;;2.04;100.00;98293.38;4943035;28;106995;-74
2021/01/04 11:17:28;;;;;;;30.70;23.03;;;;;;;1.94;100.00;98286.91;4944939;28;102782;-75
2021/01/04 11:20:05;;;;;;;30.27;22.20;;;;;;;1.88;100.00;98280.19;4936363;28;103193;-76
2021/01/04 11:22:33;;;;;;;28.27;21.67;;;;;;;1.70;100.00;98279.25;4933489;28;104321;-74
2021/01/04 11:25:00;;;;;;;29.27;21.87;;;;;;;1.68;100.00;98281.03;4933700;28;104852;-74
2021/01/04 11:27:28;;;;;;;28.40;22.00;;;;;;;1.68;100.00;98270.63;4938090;28;103139;-75
2021/01/04 11:29:55;;;;;;;28.73;21.83;;;;;;;1.79;100.00;98277.16;4942165;28;103237;-75
2021/01/04 11:32:24;;;;;;;31.37;23.87;;;;;;;1.59;100.00;98271.06;4940274;28;105032;-75
2021/01/04 11:34:54;;;;;;;30.60;23.53;;;;;;;1.56;100.00;98271.19;4939380;28;104435;-74
2021/01/04 11:37:24;;;;;;;30.90;22.67;;;;;;;1.86;100.00;98271.59;4940405;28;104825;-73
2021/01/04 11:39:53;;;;;;;30.30;22.20;;;;;;;1.54;100.00;98264.34;4940011;28;104926;-77
2021/01/04 11:42:21;;;;;;;33.17;24.07;;;;;;;1.49;100.00;98263.66;4947493;28;106157;-78
2021/01/04 11:44:48;;;;;;;35.40;24.53;;;;;;;1.48;100.00;98255.03;4949755;28;104140;-77
2021/01/04 11:47:17;;;;;;;34.77;25.23;;;;;;;1.67;100.00;98265.50;4948604;28;103590;-75
2021/01/04 11:49:44;;;;;;;34.77;24.57;;;;;;;1.74;100.00;98259.13;4950894;28;103050;-75
2021/01/04 11:52:11;;;;;;;30.67;23.07;;;;;;;1.93;100.00;98259.16;4950319;28;104968;-74
2021/01/04 11:54:40;;;;;;;31.03;23.10;;;;;;;2.03;100.00;98250.84;4947490;28;106459;-75
2021/01/04 11:57:08;;;;;;;34.77;24.00;;;;;;;1.64;100.00;98250.00;4947811;28;103207;-74